sensor_id;sensor_type;location;lat;lon;timestamp;P1;durP1;ratioP1;P2;durP2;ratioP2
25731;SDS011;13585;50.864;4.406;2023-01-15T00:01:55;1.48;;;0.93;;
25731;SDS011;13585;50.864;4.406;2023-01-15T00:04:21;2.20;;;1.05;;
25731;SDS011;13585;50.864;4.406;2023-01-15T00:06:46;1.85;;;1.15;;
25731;SDS011;13585;50.864;4.406;2023-01-15T00:09:13;2.42;;;1.10;;
25731;SDS011;13585;50.864;4.406;2023-01-15T00:11:39;3.20;;;1.30;;
25731;SDS011;13585;50.864;4.406;2023-01-15T00:14:05;2.17;;;0.95;;
25731;SDS011;13585;50.864;4.406;2023-01-15T00:16:31;2.85;;;0.90;;
25731;SDS011;13585;50.864;4.406;2023-01-15T00:18:57;1.95;;;1.02;;
25731;SDS011;13585;50.864;4.406;2023-01-15T00:21:25;1.88;;;1.00;;
25731;SDS011;13585;50.864;4.406;2023-01-15T00:23:52;2.33;;;0.85;;
25731;SDS011;13585;50.864;4.406;2023-01-15T00:26:37;2.40;;;1.00;;
25731;SDS011;13585;50.864;4.406;2023-01-15T00:29:21;3.10;;;1.15;;
25731;SDS011;13585;50.864;4.406;2023-01-15T00:31:52;1.80;;;0.90;;
25731;SDS011;13585;50.864;4.406;2023-01-15T00:34:20;1.67;;;1.10;;
25731;SDS011;13585;50.864;4.406;2023-01-15T00:36:45;2.72;;;1.10;;
25731;SDS011;13585;50.864;4.406;2023-01-15T00:39:11;2.33;;;1.00;;
25731;SDS011;13585;50.864;4.406;2023-01-15T00:41:37;2.33;;;1.02;;
25731;SDS011;13585;50.864;4.406;2023-01-15T00:44:02;2.40;;;1.02;;
25731;SDS011;13585;50.864;4.406;2023-01-15T00:46:28;2.90;;;1.13;;
25731;SDS011;13585;50.864;4.406;2023-01-15T00:48:54;1.45;;;0.85;;
25731;SDS011;13585;50.864;4.406;2023-01-15T00:51:19;2.60;;;1.02;;
25731;SDS011;13585;50.864;4.406;2023-01-15T00:53:45;3.47;;;1.20;;
25731;SDS011;13585;50.864;4.406;2023-01-15T00:56:11;3.33;;;1.35;;
25731;SDS011;13585;50.864;4.406;2023-01-15T00:58:36;3.78;;;1.20;;
25731;SDS011;13585;50.864;4.406;2023-01-15T01:01:02;1.40;;;1.05;;
25731;SDS011;13585;50.864;4.406;2023-01-15T01:03:28;2.85;;;0.95;;
25731;SDS011;13585;50.864;4.406;2023-01-15T01:05:58;3.53;;;1.42;;
25731;SDS011;13585;50.864;4.406;2023-01-15T01:08:26;3.05;;;1.13;;
25731;SDS011;13585;50.864;4.406;2023-01-15T01:11:05;3.78;;;1.20;;
25731;SDS011;13585;50.864;4.406;2023-01-15T01:13:33;3.42;;;1.10;;
25731;SDS011;13585;50.864;4.406;2023-01-15T01:15:59;3.58;;;1.10;;
25731;SDS011;13585;50.864;4.406;2023-01-15T01:18:24;3.75;;;1.08;;
25731;SDS011;13585;50.864;4.406;2023-01-15T01:20:50;1.80;;;0.90;;
25731;SDS011;13585;50.864;4.406;2023-01-15T01:23:16;3.28;;;1.30;;
25731;SDS011;13585;50.864;4.406;2023-01-15T01:25:42;4.40;;;1.17;;
25731;SDS011;13585;50.864;4.406;2023-01-15T01:28:08;4.45;;;1.30;;
25731;SDS011;13585;50.864;4.406;2023-01-15T01:30:33;2.03;;;0.90;;
25731;SDS011;13585;50.864;4.406;2023-01-15T01:32:59;1.98;;;0.93;;
25731;SDS011;13585;50.864;4.406;2023-01-15T01:35:24;3.78;;;1.20;;
25731;SDS011;13585;50.864;4.406;2023-01-15T01:37:50;3.30;;;1.20;;
25731;SDS011;13585;50.864;4.406;2023-01-15T01:40:17;3.30;;;1.25;;
25731;SDS011;13585;50.864;4.406;2023-01-15T01:42:43;3.47;;;1.23;;
25731;SDS011;13585;50.864;4.406;2023-01-15T01:45:28;3.78;;;1.10;;
25731;SDS011;13585;50.864;4.406;2023-01-15T01:47:58;5.35;;;1.50;;
25731;SDS011;13585;50.864;4.406;2023-01-15T01:50:30;3.10;;;1.10;;
25731;SDS011;13585;50.864;4.406;2023-01-15T01:53:02;3.03;;;1.48;;
25731;SDS011;13585;50.864;4.406;2023-01-15T01:55:33;2.25;;;1.00;;
25731;SDS011;13585;50.864;4.406;2023-01-15T01:58:00;2.50;;;1.23;;
25731;SDS011;13585;50.864;4.406;2023-01-15T02:00:29;3.90;;;1.10;;
25731;SDS011;13585;50.864;4.406;2023-01-15T02:02:57;4.93;;;1.40;;
25731;SDS011;13585;50.864;4.406;2023-01-15T02:05:26;1.83;;;1.00;;
25731;SDS011;13585;50.864;4.406;2023-01-15T02:07:55;3.53;;;1.40;;
25731;SDS011;13585;50.864;4.406;2023-01-15T02:10:20;3.65;;;1.08;;
25731;SDS011;13585;50.864;4.406;2023-01-15T02:12:48;5.55;;;1.33;;
25731;SDS011;13585;50.864;4.406;2023-01-15T02:15:40;2.80;;;1.30;;
25731;SDS011;13585;50.864;4.406;2023-01-15T02:18:28;3.40;;;1.40;;
25731;SDS011;13585;50.864;4.406;2023-01-15T02:21:06;2.65;;;1.10;;
25731;SDS011;13585;50.864;4.406;2023-01-15T02:26:26;2.42;;;1.15;;
25731;SDS011;13585;50.864;4.406;2023-01-15T02:29:11;2.97;;;1.27;;
25731;SDS011;13585;50.864;4.406;2023-01-15T02:31:42;2.60;;;1.35;;
25731;SDS011;13585;50.864;4.406;2023-01-15T02:36:52;2.40;;;0.90;;
25731;SDS011;13585;50.864;4.406;2023-01-15T02:39:25;4.15;;;1.02;;
25731;SDS011;13585;50.864;4.406;2023-01-15T02:41:55;3.35;;;1.20;;
25731;SDS011;13585;50.864;4.406;2023-01-15T02:44:24;4.93;;;1.33;;
25731;SDS011;13585;50.864;4.406;2023-01-15T02:46:53;2.90;;;1.10;;
25731;SDS011;13585;50.864;4.406;2023-01-15T02:49:20;2.40;;;1.20;;
25731;SDS011;13585;50.864;4.406;2023-01-15T02:52:03;2.83;;;1.27;;
25731;SDS011;13585;50.864;4.406;2023-01-15T02:54:40;2.38;;;1.00;;
25731;SDS011;13585;50.864;4.406;2023-01-15T02:57:09;2.63;;;1.10;;
25731;SDS011;13585;50.864;4.406;2023-01-15T02:59:37;4.00;;;1.17;;
25731;SDS011;13585;50.864;4.406;2023-01-15T03:02:07;3.45;;;1.20;;
25731;SDS011;13585;50.864;4.406;2023-01-15T03:09:40;1.67;;;0.70;;
25731;SDS011;13585;50.864;4.406;2023-01-15T03:14:43;2.90;;;1.33;;
25731;SDS011;13585;50.864;4.406;2023-01-15T03:17:39;3.45;;;1.10;;
25731;SDS011;13585;50.864;4.406;2023-01-15T03:20:24;3.45;;;1.30;;
25731;SDS011;13585;50.864;4.406;2023-01-15T03:23:03;2.83;;;1.10;;
25731;SDS011;13585;50.864;4.406;2023-01-15T03:25:34;2.15;;;1.13;;
25731;SDS011;13585;50.864;4.406;2023-01-15T03:28:04;2.67;;;1.20;;
25731;SDS011;13585;50.864;4.406;2023-01-15T03:30:31;1.83;;;0.98;;
25731;SDS011;13585;50.864;4.406;2023-01-15T03:32:58;3.67;;;1.38;;
25731;SDS011;13585;50.864;4.406;2023-01-15T03:38:13;2.80;;;1.00;;
25731;SDS011;13585;50.864;4.406;2023-01-15T03:40:58;2.83;;;1.23;;
25731;SDS011;13585;50.864;4.406;2023-01-15T03:51:59;3.05;;;1.20;;
25731;SDS011;13585;50.864;4.406;2023-01-15T03:54:52;3.05;;;0.88;;
25731;SDS011;13585;50.864;4.406;2023-01-15T03:57:26;2.67;;;1.25;;
25731;SDS011;13585;50.864;4.406;2023-01-15T04:00:00;2.47;;;1.00;;
25731;SDS011;13585;50.864;4.406;2023-01-15T04:02:33;1.58;;;0.90;;
25731;SDS011;13585;50.864;4.406;2023-01-15T04:05:01;2.47;;;1.08;;
25731;SDS011;13585;50.864;4.406;2023-01-15T04:07:28;2.55;;;1.00;;
25731;SDS011;13585;50.864;4.406;2023-01-15T04:09:55;1.35;;;1.10;;
25731;SDS011;13585;50.864;4.406;2023-01-15T04:12:20;2.30;;;0.90;;
25731;SDS011;13585;50.864;4.406;2023-01-15T04:14:46;1.48;;;1.00;;
25731;SDS011;13585;50.864;4.406;2023-01-15T04:17:12;3.33;;;1.38;;
25731;SDS011;13585;50.864;4.406;2023-01-15T04:19:37;3.35;;;1.30;;
25731;SDS011;13585;50.864;4.406;2023-01-15T04:22:03;2.70;;;1.08;;
25731;SDS011;13585;50.864;4.406;2023-01-15T04:24:29;3.45;;;1.27;;
25731;SDS011;13585;50.864;4.406;2023-01-15T04:26:54;3.08;;;1.38;;
25731;SDS011;13585;50.864;4.406;2023-01-15T04:29:20;2.05;;;0.85;;
25731;SDS011;13585;50.864;4.406;2023-01-15T04:31:46;2.35;;;1.17;;
25731;SDS011;13585;50.864;4.406;2023-01-15T04:34:11;1.88;;;0.85;;
25731;SDS011;13585;50.864;4.406;2023-01-15T04:36:37;2.70;;;0.98;;
25731;SDS011;13585;50.864;4.406;2023-01-15T04:39:03;1.88;;;1.10;;
25731;SDS011;13585;50.864;4.406;2023-01-15T04:41:29;2.38;;;1.10;;
25731;SDS011;13585;50.864;4.406;2023-01-15T04:44:14;3.47;;;1.38;;
25731;SDS011;13585;50.864;4.406;2023-01-15T04:46:40;2.80;;;0.80;;
25731;SDS011;13585;50.864;4.406;2023-01-15T04:49:09;4.10;;;1.33;;
25731;SDS011;13585;50.864;4.406;2023-01-15T04:51:38;2.53;;;1.05;;
25731;SDS011;13585;50.864;4.406;2023-01-15T04:54:05;2.42;;;1.00;;
25731;SDS011;13585;50.864;4.406;2023-01-15T04:56:35;1.67;;;1.00;;
25731;SDS011;13585;50.864;4.406;2023-01-15T04:59:02;3.47;;;0.80;;
25731;SDS011;13585;50.864;4.406;2023-01-15T05:01:28;2.65;;;1.10;;
25731;SDS011;13585;50.864;4.406;2023-01-15T05:03:53;3.80;;;1.23;;
25731;SDS011;13585;50.864;4.406;2023-01-15T05:06:19;2.65;;;1.00;;
25731;SDS011;13585;50.864;4.406;2023-01-15T05:08:45;2.42;;;1.00;;
25731;SDS011;13585;50.864;4.406;2023-01-15T05:11:11;2.47;;;1.13;;
25731;SDS011;13585;50.864;4.406;2023-01-15T05:13:36;2.45;;;1.00;;
25731;SDS011;13585;50.864;4.406;2023-01-15T05:16:13;3.65;;;1.00;;
25731;SDS011;13585;50.864;4.406;2023-01-15T05:18:41;1.77;;;0.98;;
25731;SDS011;13585;50.864;4.406;2023-01-15T05:21:23;2.05;;;0.95;;
25731;SDS011;13585;50.864;4.406;2023-01-15T05:23:57;1.92;;;0.77;;
25731;SDS011;13585;50.864;4.406;2023-01-15T05:26:24;4.00;;;1.10;;
25731;SDS011;13585;50.864;4.406;2023-01-15T05:28:54;2.05;;;0.90;;
25731;SDS011;13585;50.864;4.406;2023-01-15T05:31:22;1.70;;;0.82;;
25731;SDS011;13585;50.864;4.406;2023-01-15T05:33:49;2.70;;;1.20;;
25731;SDS011;13585;50.864;4.406;2023-01-15T05:36:16;3.80;;;0.98;;
25731;SDS011;13585;50.864;4.406;2023-01-15T05:38:44;2.30;;;1.10;;
25731;SDS011;13585;50.864;4.406;2023-01-15T05:41:12;3.53;;;1.10;;
25731;SDS011;13585;50.864;4.406;2023-01-15T05:44:02;2.22;;;1.02;;
25731;SDS011;13585;50.864;4.406;2023-01-15T05:46:31;3.15;;;1.10;;
25731;SDS011;13585;50.864;4.406;2023-01-15T05:49:00;4.97;;;1.10;;
25731;SDS011;13585;50.864;4.406;2023-01-15T05:51:27;1.98;;;0.90;;
25731;SDS011;13585;50.864;4.406;2023-01-15T05:53:54;2.00;;;0.75;;
25731;SDS011;13585;50.864;4.406;2023-01-15T05:56:20;1.73;;;0.73;;
25731;SDS011;13585;50.864;4.406;2023-01-15T05:58:46;1.63;;;1.02;;
25731;SDS011;13585;50.864;4.406;2023-01-15T06:01:12;3.10;;;0.95;;
25731;SDS011;13585;50.864;4.406;2023-01-15T06:03:38;2.03;;;0.98;;
25731;SDS011;13585;50.864;4.406;2023-01-15T06:06:05;4.07;;;1.00;;
25731;SDS011;13585;50.864;4.406;2023-01-15T06:08:32;2.25;;;0.98;;
25731;SDS011;13585;50.864;4.406;2023-01-15T06:10:57;2.10;;;0.90;;
25731;SDS011;13585;50.864;4.406;2023-01-15T06:13:23;2.03;;;0.88;;
25731;SDS011;13585;50.864;4.406;2023-01-15T06:15:48;3.42;;;0.90;;
25731;SDS011;13585;50.864;4.406;2023-01-15T06:18:14;2.20;;;0.80;;
25731;SDS011;13585;50.864;4.406;2023-01-15T06:20:40;1.77;;;0.85;;
25731;SDS011;13585;50.864;4.406;2023-01-15T06:23:06;2.95;;;0.85;;
25731;SDS011;13585;50.864;4.406;2023-01-15T06:25:33;1.15;;;0.80;;
25731;SDS011;13585;50.864;4.406;2023-01-15T06:28:01;3.55;;;1.15;;
25731;SDS011;13585;50.864;4.406;2023-01-15T06:30:30;3.13;;;1.05;;
25731;SDS011;13585;50.864;4.406;2023-01-15T06:33:05;3.60;;;1.00;;
25731;SDS011;13585;50.864;4.406;2023-01-15T06:35:33;1.88;;;0.73;;
25731;SDS011;13585;50.864;4.406;2023-01-15T06:37:59;2.70;;;0.95;;
25731;SDS011;13585;50.864;4.406;2023-01-15T06:40:25;1.80;;;1.02;;
25731;SDS011;13585;50.864;4.406;2023-01-15T06:42:52;2.33;;;0.80;;
25731;SDS011;13585;50.864;4.406;2023-01-15T06:45:37;1.98;;;0.80;;
25731;SDS011;13585;50.864;4.406;2023-01-15T06:48:23;3.28;;;1.13;;
25731;SDS011;13585;50.864;4.406;2023-01-15T06:50:50;2.72;;;1.02;;
25731;SDS011;13585;50.864;4.406;2023-01-15T06:53:16;2.05;;;0.95;;
25731;SDS011;13585;50.864;4.406;2023-01-15T06:55:41;1.73;;;0.98;;
25731;SDS011;13585;50.864;4.406;2023-01-15T06:58:07;2.65;;;0.90;;
25731;SDS011;13585;50.864;4.406;2023-01-15T07:00:33;3.67;;;1.10;;
25731;SDS011;13585;50.864;4.406;2023-01-15T07:02:59;1.42;;;0.70;;
25731;SDS011;13585;50.864;4.406;2023-01-15T07:05:25;3.20;;;0.70;;
25731;SDS011;13585;50.864;4.406;2023-01-15T07:07:51;2.80;;;0.77;;
25731;SDS011;13585;50.864;4.406;2023-01-15T07:10:16;1.63;;;0.70;;
25731;SDS011;13585;50.864;4.406;2023-01-15T07:12:42;4.50;;;1.00;;
25731;SDS011;13585;50.864;4.406;2023-01-15T07:15:08;1.88;;;0.93;;
25731;SDS011;13585;50.864;4.406;2023-01-15T07:17:34;4.40;;;1.13;;
25731;SDS011;13585;50.864;4.406;2023-01-15T07:19:59;2.58;;;0.65;;
25731;SDS011;13585;50.864;4.406;2023-01-15T07:22:25;4.53;;;0.77;;
25731;SDS011;13585;50.864;4.406;2023-01-15T07:24:51;2.40;;;0.90;;
25731;SDS011;13585;50.864;4.406;2023-01-15T07:27:16;1.52;;;0.80;;
25731;SDS011;13585;50.864;4.406;2023-01-15T07:29:42;2.83;;;1.00;;
25731;SDS011;13585;50.864;4.406;2023-01-15T07:32:08;3.30;;;1.00;;
25731;SDS011;13585;50.864;4.406;2023-01-15T07:34:34;2.22;;;0.65;;
25731;SDS011;13585;50.864;4.406;2023-01-15T07:37:00;4.15;;;1.15;;
25731;SDS011;13585;50.864;4.406;2023-01-15T07:39:32;1.55;;;0.80;;
25731;SDS011;13585;50.864;4.406;2023-01-15T07:41:57;3.22;;;0.70;;
25731;SDS011;13585;50.864;4.406;2023-01-15T07:44:41;2.92;;;0.88;;
25731;SDS011;13585;50.864;4.406;2023-01-15T07:47:39;3.08;;;0.90;;
25731;SDS011;13585;50.864;4.406;2023-01-15T07:50:23;3.92;;;0.80;;
25731;SDS011;13585;50.864;4.406;2023-01-15T07:52:49;2.22;;;0.88;;
25731;SDS011;13585;50.864;4.406;2023-01-15T07:55:17;3.03;;;0.70;;
25731;SDS011;13585;50.864;4.406;2023-01-15T07:57:44;2.05;;;0.80;;
25731;SDS011;13585;50.864;4.406;2023-01-15T08:00:11;2.75;;;0.90;;
25731;SDS011;13585;50.864;4.406;2023-01-15T08:02:39;2.28;;;0.90;;
25731;SDS011;13585;50.864;4.406;2023-01-15T08:05:06;2.92;;;0.77;;
25731;SDS011;13585;50.864;4.406;2023-01-15T08:07:39;1.92;;;0.80;;
25731;SDS011;13585;50.864;4.406;2023-01-15T08:10:06;1.83;;;0.82;;
25731;SDS011;13585;50.864;4.406;2023-01-15T08:12:38;2.67;;;0.75;;
25731;SDS011;13585;50.864;4.406;2023-01-15T08:15:23;2.20;;;0.70;;
25731;SDS011;13585;50.864;4.406;2023-01-15T08:17:50;2.65;;;0.85;;
25731;SDS011;13585;50.864;4.406;2023-01-15T08:20:19;2.00;;;0.70;;
25731;SDS011;13585;50.864;4.406;2023-01-15T08:22:47;2.33;;;0.77;;
25731;SDS011;13585;50.864;4.406;2023-01-15T08:25:14;4.70;;;0.85;;
25731;SDS011;13585;50.864;4.406;2023-01-15T08:27:42;1.17;;;0.68;;
25731;SDS011;13585;50.864;4.406;2023-01-15T08:30:10;2.05;;;0.90;;
25731;SDS011;13585;50.864;4.406;2023-01-15T08:32:40;1.92;;;0.80;;
25731;SDS011;13585;50.864;4.406;2023-01-15T08:35:06;2.83;;;0.95;;
25731;SDS011;13585;50.864;4.406;2023-01-15T08:37:32;2.17;;;0.82;;
25731;SDS011;13585;50.864;4.406;2023-01-15T08:39:58;1.77;;;0.73;;
25731;SDS011;13585;50.864;4.406;2023-01-15T08:42:24;1.67;;;0.70;;
25731;SDS011;13585;50.864;4.406;2023-01-15T08:44:49;2.78;;;0.70;;
25731;SDS011;13585;50.864;4.406;2023-01-15T08:47:15;2.15;;;1.00;;
25731;SDS011;13585;50.864;4.406;2023-01-15T08:49:41;2.50;;;0.90;;
25731;SDS011;13585;50.864;4.406;2023-01-15T08:52:08;1.70;;;0.70;;
25731;SDS011;13585;50.864;4.406;2023-01-15T08:54:34;1.88;;;0.70;;
25731;SDS011;13585;50.864;4.406;2023-01-15T08:57:00;1.98;;;1.00;;
25731;SDS011;13585;50.864;4.406;2023-01-15T08:59:26;2.97;;;1.00;;
25731;SDS011;13585;50.864;4.406;2023-01-15T09:01:51;1.95;;;0.70;;
25731;SDS011;13585;50.864;4.406;2023-01-15T09:04:18;1.17;;;0.60;;
25731;SDS011;13585;50.864;4.406;2023-01-15T09:06:45;2.22;;;0.80;;
25731;SDS011;13585;50.864;4.406;2023-01-15T09:09:12;4.03;;;0.80;;
25731;SDS011;13585;50.864;4.406;2023-01-15T09:11:38;2.17;;;0.80;;
25731;SDS011;13585;50.864;4.406;2023-01-15T09:14:09;3.95;;;1.00;;
25731;SDS011;13585;50.864;4.406;2023-01-15T09:16:37;1.88;;;0.80;;
25731;SDS011;13585;50.864;4.406;2023-01-15T09:19:04;3.10;;;0.70;;
25731;SDS011;13585;50.864;4.406;2023-01-15T09:21:30;2.15;;;0.70;;
25731;SDS011;13585;50.864;4.406;2023-01-15T09:23:56;1.85;;;0.68;;
25731;SDS011;13585;50.864;4.406;2023-01-15T09:26:32;2.72;;;0.95;;
25731;SDS011;13585;50.864;4.406;2023-01-15T09:28:59;3.67;;;1.02;;
25731;SDS011;13585;50.864;4.406;2023-01-15T09:31:26;1.20;;;0.55;;
25731;SDS011;13585;50.864;4.406;2023-01-15T09:33:52;3.05;;;0.80;;
25731;SDS011;13585;50.864;4.406;2023-01-15T09:36:18;2.60;;;0.65;;
25731;SDS011;13585;50.864;4.406;2023-01-15T09:38:53;3.65;;;0.80;;
25731;SDS011;13585;50.864;4.406;2023-01-15T09:41:19;2.10;;;0.70;;
25731;SDS011;13585;50.864;4.406;2023-01-15T09:44:27;3.22;;;0.70;;
25731;SDS011;13585;50.864;4.406;2023-01-15T09:57:28;1.08;;;0.60;;
25731;SDS011;13585;50.864;4.406;2023-01-15T09:59:55;4.95;;;1.05;;
25731;SDS011;13585;50.864;4.406;2023-01-15T10:10:23;2.13;;;0.90;;
25731;SDS011;13585;50.864;4.406;2023-01-15T10:12:56;0.88;;;0.63;;
25731;SDS011;13585;50.864;4.406;2023-01-15T10:15:33;1.00;;;0.60;;
25731;SDS011;13585;50.864;4.406;2023-01-15T10:18:05;2.13;;;0.75;;
25731;SDS011;13585;50.864;4.406;2023-01-15T10:25:56;2.58;;;0.75;;
25731;SDS011;13585;50.864;4.406;2023-01-15T10:28:51;1.77;;;0.90;;
25731;SDS011;13585;50.864;4.406;2023-01-15T10:34:54;2.33;;;0.65;;
25731;SDS011;13585;50.864;4.406;2023-01-15T10:37:16;1.30;;;0.60;;
25731;SDS011;13585;50.864;4.406;2023-01-15T10:40:08;3.72;;;0.80;;
25731;SDS011;13585;50.864;4.406;2023-01-15T10:42:41;1.42;;;0.70;;
25731;SDS011;13585;50.864;4.406;2023-01-15T10:45:22;2.20;;;0.73;;
25731;SDS011;13585;50.864;4.406;2023-01-15T10:47:58;1.70;;;0.70;;
25731;SDS011;13585;50.864;4.406;2023-01-15T10:50:37;2.80;;;1.02;;
25731;SDS011;13585;50.864;4.406;2023-01-15T10:55:41;1.70;;;0.68;;
25731;SDS011;13585;50.864;4.406;2023-01-15T11:00:55;2.67;;;0.90;;
25731;SDS011;13585;50.864;4.406;2023-01-15T11:03:30;3.53;;;1.00;;
25731;SDS011;13585;50.864;4.406;2023-01-15T11:06:05;1.63;;;0.55;;
25731;SDS011;13585;50.864;4.406;2023-01-15T11:08:37;1.48;;;0.70;;
25731;SDS011;13585;50.864;4.406;2023-01-15T11:11:42;2.80;;;0.80;;
25731;SDS011;13585;50.864;4.406;2023-01-15T11:14:19;3.00;;;0.80;;
25731;SDS011;13585;50.864;4.406;2023-01-15T11:17:13;2.33;;;0.68;;
25731;SDS011;13585;50.864;4.406;2023-01-15T11:19:57;1.25;;;0.50;;
25731;SDS011;13585;50.864;4.406;2023-01-15T11:22:23;1.60;;;0.60;;
25731;SDS011;13585;50.864;4.406;2023-01-15T11:24:53;6.68;;;0.75;;
25731;SDS011;13585;50.864;4.406;2023-01-15T11:27:23;1.65;;;0.70;;
25731;SDS011;13585;50.864;4.406;2023-01-15T11:29:53;3.28;;;0.80;;
25731;SDS011;13585;50.864;4.406;2023-01-15T11:32:33;1.25;;;0.70;;
25731;SDS011;13585;50.864;4.406;2023-01-15T11:37:33;1.25;;;0.60;;
25731;SDS011;13585;50.864;4.406;2023-01-15T11:39:59;1.40;;;0.55;;
25731;SDS011;13585;50.864;4.406;2023-01-15T11:42:35;2.10;;;0.60;;
25731;SDS011;13585;50.864;4.406;2023-01-15T11:45:21;1.95;;;0.70;;
25731;SDS011;13585;50.864;4.406;2023-01-15T11:48:13;2.33;;;0.70;;
25731;SDS011;13585;50.864;4.406;2023-01-15T11:51:01;2.50;;;1.10;;
25731;SDS011;13585;50.864;4.406;2023-01-15T11:56:41;4.13;;;1.52;;
25731;SDS011;13585;50.864;4.406;2023-01-15T11:59:13;5.03;;;1.38;;
25731;SDS011;13585;50.864;4.406;2023-01-15T12:01:51;2.65;;;1.15;;
25731;SDS011;13585;50.864;4.406;2023-01-15T12:07:04;5.35;;;1.55;;
25731;SDS011;13585;50.864;4.406;2023-01-15T12:09:41;3.38;;;1.48;;
25731;SDS011;13585;50.864;4.406;2023-01-15T12:15:22;3.42;;;1.30;;
25731;SDS011;13585;50.864;4.406;2023-01-15T12:20:23;5.60;;;1.60;;
25731;SDS011;13585;50.864;4.406;2023-01-15T12:28:31;3.85;;;1.55;;
25731;SDS011;13585;50.864;4.406;2023-01-15T12:36:58;4.85;;;1.70;;
25731;SDS011;13585;50.864;4.406;2023-01-15T12:39:34;4.53;;;1.60;;
25731;SDS011;13585;50.864;4.406;2023-01-15T12:42:14;6.00;;;1.27;;
25731;SDS011;13585;50.864;4.406;2023-01-15T12:45:11;5.65;;;1.88;;
25731;SDS011;13585;50.864;4.406;2023-01-15T12:50:40;2.28;;;1.30;;
25731;SDS011;13585;50.864;4.406;2023-01-15T12:55:54;3.75;;;1.10;;
25731;SDS011;13585;50.864;4.406;2023-01-15T12:58:46;3.85;;;1.30;;
25731;SDS011;13585;50.864;4.406;2023-01-15T13:01:33;3.25;;;1.38;;
25731;SDS011;13585;50.864;4.406;2023-01-15T13:04:09;3.95;;;1.33;;
25731;SDS011;13585;50.864;4.406;2023-01-15T13:06:46;3.65;;;1.27;;
25731;SDS011;13585;50.864;4.406;2023-01-15T13:12:00;3.03;;;1.20;;
25731;SDS011;13585;50.864;4.406;2023-01-15T13:14:26;2.72;;;1.35;;
25731;SDS011;13585;50.864;4.406;2023-01-15T13:16:56;1.83;;;0.90;;
25731;SDS011;13585;50.864;4.406;2023-01-15T13:19:41;3.92;;;1.13;;
25731;SDS011;13585;50.864;4.406;2023-01-15T13:27:44;4.80;;;1.60;;
25731;SDS011;13585;50.864;4.406;2023-01-15T13:33:03;8.38;;;3.17;;
25731;SDS011;13585;50.864;4.406;2023-01-15T13:35:44;5.53;;;2.03;;
25731;SDS011;13585;50.864;4.406;2023-01-15T13:38:15;3.70;;;1.70;;
25731;SDS011;13585;50.864;4.406;2023-01-15T13:40:45;4.47;;;2.00;;
25731;SDS011;13585;50.864;4.406;2023-01-15T13:46:00;4.97;;;1.77;;
25731;SDS011;13585;50.864;4.406;2023-01-15T13:48:41;4.20;;;1.70;;
25731;SDS011;13585;50.864;4.406;2023-01-15T13:51:21;3.50;;;1.90;;
25731;SDS011;13585;50.864;4.406;2023-01-15T13:54:09;2.70;;;1.73;;
25731;SDS011;13585;50.864;4.406;2023-01-15T13:56:40;3.72;;;1.85;;
25731;SDS011;13585;50.864;4.406;2023-01-15T13:59:28;6.50;;;1.80;;
25731;SDS011;13585;50.864;4.406;2023-01-15T14:02:24;3.70;;;1.67;;
25731;SDS011;13585;50.864;4.406;2023-01-15T14:04:52;3.40;;;1.90;;
25731;SDS011;13585;50.864;4.406;2023-01-15T14:07:30;4.90;;;1.90;;
25731;SDS011;13585;50.864;4.406;2023-01-15T14:10:07;4.45;;;1.70;;
25731;SDS011;13585;50.864;4.406;2023-01-15T14:15:12;6.95;;;1.73;;
25731;SDS011;13585;50.864;4.406;2023-01-15T14:36:37;2.88;;;1.50;;
25731;SDS011;13585;50.864;4.406;2023-01-15T14:41:54;3.38;;;1.35;;
25731;SDS011;13585;50.864;4.406;2023-01-15T14:44:44;2.72;;;1.30;;
25731;SDS011;13585;50.864;4.406;2023-01-15T14:47:20;2.67;;;1.40;;
25731;SDS011;13585;50.864;4.406;2023-01-15T14:50:01;3.55;;;1.42;;
25731;SDS011;13585;50.864;4.406;2023-01-15T14:52:45;2.92;;;1.25;;
25731;SDS011;13585;50.864;4.406;2023-01-15T14:55:11;3.17;;;1.60;;
25731;SDS011;13585;50.864;4.406;2023-01-15T14:57:38;3.25;;;1.48;;
25731;SDS011;13585;50.864;4.406;2023-01-15T15:00:06;3.20;;;1.50;;
25731;SDS011;13585;50.864;4.406;2023-01-15T15:02:38;2.58;;;1.40;;
25731;SDS011;13585;50.864;4.406;2023-01-15T15:05:14;2.80;;;1.58;;
25731;SDS011;13585;50.864;4.406;2023-01-15T15:07:43;4.25;;;1.70;;
25731;SDS011;13585;50.864;4.406;2023-01-15T15:18:08;2.95;;;1.42;;
25731;SDS011;13585;50.864;4.406;2023-01-15T15:25:53;3.10;;;1.10;;
25731;SDS011;13585;50.864;4.406;2023-01-15T15:28:24;3.60;;;1.33;;
25731;SDS011;13585;50.864;4.406;2023-01-15T15:30:51;1.92;;;0.98;;
25731;SDS011;13585;50.864;4.406;2023-01-15T15:33:25;4.40;;;1.30;;
25731;SDS011;13585;50.864;4.406;2023-01-15T15:35:57;2.28;;;1.20;;
25731;SDS011;13585;50.864;4.406;2023-01-15T15:38:24;3.30;;;1.42;;
25731;SDS011;13585;50.864;4.406;2023-01-15T15:40:54;2.95;;;1.33;;
25731;SDS011;13585;50.864;4.406;2023-01-15T15:43:27;3.45;;;1.40;;
25731;SDS011;13585;50.864;4.406;2023-01-15T15:46:23;3.38;;;1.02;;
25731;SDS011;13585;50.864;4.406;2023-01-15T15:49:10;2.78;;;1.35;;
25731;SDS011;13585;50.864;4.406;2023-01-15T15:54:22;3.05;;;1.30;;
25731;SDS011;13585;50.864;4.406;2023-01-15T15:57:00;1.92;;;1.00;;
25731;SDS011;13585;50.864;4.406;2023-01-15T15:59:43;2.78;;;1.20;;
25731;SDS011;13585;50.864;4.406;2023-01-15T16:02:16;2.65;;;1.27;;
25731;SDS011;13585;50.864;4.406;2023-01-15T16:04:50;2.78;;;1.10;;
25731;SDS011;13585;50.864;4.406;2023-01-15T16:07:21;1.85;;;1.10;;
25731;SDS011;13585;50.864;4.406;2023-01-15T16:10:06;4.63;;;1.20;;
25731;SDS011;13585;50.864;4.406;2023-01-15T16:12:44;1.52;;;0.93;;
25731;SDS011;13585;50.864;4.406;2023-01-15T16:15:15;2.35;;;1.08;;
25731;SDS011;13585;50.864;4.406;2023-01-15T16:17:47;4.05;;;1.15;;
25731;SDS011;13585;50.864;4.406;2023-01-15T16:20:15;2.45;;;1.10;;
25731;SDS011;13585;50.864;4.406;2023-01-15T16:22:59;2.47;;;1.42;;
25731;SDS011;13585;50.864;4.406;2023-01-15T16:25:33;2.45;;;0.95;;
25731;SDS011;13585;50.864;4.406;2023-01-15T16:28:02;2.08;;;1.13;;
25731;SDS011;13585;50.864;4.406;2023-01-15T16:30:29;3.10;;;1.02;;
25731;SDS011;13585;50.864;4.406;2023-01-15T16:32:59;2.70;;;0.98;;
25731;SDS011;13585;50.864;4.406;2023-01-15T16:35:27;2.83;;;1.02;;
25731;SDS011;13585;50.864;4.406;2023-01-15T16:37:55;2.75;;;1.08;;
25731;SDS011;13585;50.864;4.406;2023-01-15T16:40:25;2.63;;;1.13;;
25731;SDS011;13585;50.864;4.406;2023-01-15T16:43:14;2.83;;;1.17;;
25731;SDS011;13585;50.864;4.406;2023-01-15T16:48:41;1.88;;;1.05;;
25731;SDS011;13585;50.864;4.406;2023-01-15T16:51:44;2.53;;;1.02;;
25731;SDS011;13585;50.864;4.406;2023-01-15T16:54:10;1.70;;;0.90;;
25731;SDS011;13585;50.864;4.406;2023-01-15T16:56:56;1.40;;;0.90;;
25731;SDS011;13585;50.864;4.406;2023-01-15T17:01:55;1.92;;;1.02;;
25731;SDS011;13585;50.864;4.406;2023-01-15T17:04:39;5.07;;;1.35;;
25731;SDS011;13585;50.864;4.406;2023-01-15T17:09:39;3.00;;;1.10;;
25731;SDS011;13585;50.864;4.406;2023-01-15T17:17:48;1.50;;;0.85;;
25731;SDS011;13585;50.864;4.406;2023-01-15T17:20:15;1.35;;;0.80;;
25731;SDS011;13585;50.864;4.406;2023-01-15T17:22:43;1.70;;;1.10;;
25731;SDS011;13585;50.864;4.406;2023-01-15T17:25:23;2.33;;;1.17;;
25731;SDS011;13585;50.864;4.406;2023-01-15T17:27:55;3.88;;;1.30;;
25731;SDS011;13585;50.864;4.406;2023-01-15T17:30:23;1.75;;;1.15;;
25731;SDS011;13585;50.864;4.406;2023-01-15T17:33:01;1.95;;;1.10;;
25731;SDS011;13585;50.864;4.406;2023-01-15T17:35:29;2.53;;;1.17;;
25731;SDS011;13585;50.864;4.406;2023-01-15T17:37:56;3.83;;;1.15;;
25731;SDS011;13585;50.864;4.406;2023-01-15T17:40:22;6.80;;;1.70;;
25731;SDS011;13585;50.864;4.406;2023-01-15T17:42:48;3.28;;;1.80;;
25731;SDS011;13585;50.864;4.406;2023-01-15T17:45:14;2.15;;;1.20;;
25731;SDS011;13585;50.864;4.406;2023-01-15T17:47:46;3.15;;;1.27;;
25731;SDS011;13585;50.864;4.406;2023-01-15T17:50:12;2.90;;;1.10;;